KJBR

Jonesboro Municipal Airport

Airport
ICAO code
KJBR
Summary
ICAO Region
NAM
ICAO Territory
Location

Jonesboro, Arkansas,

Coordinates
35° 49' 54" N , 90° 38' 49" W
KCC
Metar
Observation
KJBR 070853Z AUTO 23004KT 10SM CLR 14/11 A3016 RMK AO2 SLP211 T01440111 53004 $
Station
Jonesboro, Jonesboro Municipal Airport
Date/Time
2022-10-07 08:53:00
Wind direction
230°
Wind speed
04 kts
Lowest cloud amount
n/a
Temperature
14.4°C
Dew point
11.1°C
Humidity
80%
Weather condition
n/a

Description

Municipal airport serving Jonesboro, Arkansas, USA, located 3 nm east of the city's business district.

Climatology

Humid “subtropical” climate (Köppen climate classification Cfa) - characterized by hot, humid summers and cool winters. Significant amounts of precipitation occur in all seasons in most areas. Winter rainfall (and sometimes snowfall) is associated with large storms that the westerlies steer from west to east. Most summer rainfall occurs during thunderstorms and occasional tropical storms (hurricanes).

Airport map

Aerial View

SKYbrary Partners:

Safety knowledge contributed by: